createdAt,value
2017-10-29T00:01:07.400Z,942.8
2017-10-29T00:02:15.612Z,942.8
2017-10-29T00:03:24.078Z,942.8
2017-10-29T00:04:31.671Z,942.8
2017-10-29T00:05:39.813Z,942.7
2017-10-29T00:06:47.841Z,942.7
2017-10-29T00:07:55.930Z,942.7
2017-10-29T00:09:04.099Z,942.6
2017-10-29T00:10:12.216Z,942.6
2017-10-29T00:11:20.242Z,942.7
2017-10-29T00:12:28.273Z,942.6
2017-10-29T00:13:36.361Z,942.7
2017-10-29T00:14:44.446Z,942.6
2017-10-29T00:15:52.532Z,942.5
2017-10-29T00:17:00.740Z,942.5
2017-10-29T00:18:09.899Z,942.5
2017-10-29T00:19:17.930Z,942.4
2017-10-29T00:20:26.021Z,942.4
2017-10-29T00:21:34.109Z,942.4
2017-10-29T00:22:42.284Z,942.4
2017-10-29T00:23:50.282Z,942.4
2017-10-29T00:24:58.366Z,942.4
2017-10-29T00:26:06.454Z,942.4
2017-10-29T00:27:14.541Z,942.4
2017-10-29T00:28:22.686Z,942.3
2017-10-29T00:29:30.715Z,942.2
2017-10-29T00:30:38.802Z,942.2
2017-10-29T00:31:46.886Z,942.2
2017-10-29T00:32:54.974Z,942.2
2017-10-29T00:34:03.179Z,942.1
2017-10-29T00:35:11.144Z,942.1
2017-10-29T00:36:19.247Z,942.1
2017-10-29T00:37:27.318Z,942.0
2017-10-29T00:38:35.406Z,942.0
2017-10-29T00:39:43.550Z,942.0
2017-10-29T00:40:51.589Z,942.0
2017-10-29T00:41:59.664Z,942.0
2017-10-29T00:43:07.750Z,942.0
2017-10-29T00:44:15.837Z,941.9
2017-10-29T00:45:23.978Z,941.9
2017-10-29T00:46:32.016Z,941.8
2017-10-29T00:47:40.104Z,941.8
2017-10-29T00:48:48.199Z,941.8
2017-10-29T00:49:56.397Z,941.8
2017-10-29T00:51:04.507Z,941.8
2017-10-29T00:52:12.537Z,941.8
2017-10-29T00:53:20.627Z,941.8
2017-10-29T00:54:28.866Z,941.8
2017-10-29T00:55:36.892Z,941.9
2017-10-29T00:56:44.941Z,941.9
2017-10-29T00:57:52.979Z,941.9
2017-10-29T00:59:01.207Z,941.9
2017-10-29T01:00:09.146Z,941.8
2017-10-29T01:01:17.231Z,941.8
2017-10-29T01:02:25.376Z,941.8
2017-10-29T01:03:33.403Z,941.8
2017-10-29T01:04:41.495Z,941.8
2017-10-29T01:05:49.636Z,941.8
2017-10-29T01:06:57.670Z,941.7
2017-10-29T01:08:05.814Z,941.8
2017-10-29T01:09:13.843Z,941.8
2017-10-29T01:10:21.970Z,941.8
2017-10-29T01:11:30.023Z,941.8
2017-10-29T01:12:38.113Z,941.8
2017-10-29T01:13:46.254Z,941.8
2017-10-29T01:14:54.287Z,941.8
2017-10-29T01:16:02.835Z,941.8
2017-10-29T01:17:10.777Z,941.7
2017-10-29T01:18:18.864Z,941.7
2017-10-29T01:19:27.008Z,941.6
2017-10-29T01:20:35.172Z,941.6
2017-10-29T01:21:43.244Z,941.5
2017-10-29T01:22:51.211Z,941.5
2017-10-29T01:23:59.296Z,941.5
2017-10-29T01:25:07.438Z,941.4
2017-10-29T01:26:15.472Z,941.3
2017-10-29T01:27:23.556Z,941.4
2017-10-29T01:28:31.650Z,941.3
2017-10-29T01:29:39.734Z,941.2
2017-10-29T01:30:47.944Z,941.2
2017-10-29T01:31:55.906Z,941.1
2017-10-29T01:33:03.993Z,941.2
2017-10-29T01:34:12.222Z,941.2
2017-10-29T01:35:20.353Z,941.2
2017-10-29T01:36:28.310Z,941.1
2017-10-29T01:37:36.460Z,941.1
2017-10-29T01:38:44.432Z,941.1
2017-10-29T01:39:52.516Z,941.1
2017-10-29T01:41:00.730Z,941.0
2017-10-29T01:42:08.744Z,941.1
2017-10-29T01:43:16.780Z,941.0
2017-10-29T01:44:24.859Z,941.0
2017-10-29T01:45:32.952Z,941.0
2017-10-29T01:46:41.035Z,941.0
2017-10-29T01:47:49.243Z,941.1
2017-10-29T01:48:57.209Z,941.0
2017-10-29T01:50:05.298Z,941.1
2017-10-29T01:51:13.384Z,941.0
2017-10-29T01:52:21.469Z,941.0
2017-10-29T01:53:29.679Z,941.1
2017-10-29T01:54:37.647Z,941.1
2017-10-29T01:55:45.736Z,941.1
2017-10-29T01:56:53.888Z,941.1
2017-10-29T01:58:01.911Z,941.0
2017-10-29T01:59:10.450Z,941.1
2017-10-29T02:00:18.544Z,941.0
2017-10-29T02:01:26.571Z,940.9
2017-10-29T02:02:34.597Z,940.9
2017-10-29T02:03:42.683Z,940.8
2017-10-29T02:04:50.863Z,940.7
2017-10-29T02:05:58.862Z,940.7
2017-10-29T02:07:06.952Z,940.8
2017-10-29T02:08:15.036Z,940.8
2017-10-29T02:09:23.244Z,940.9
2017-10-29T02:10:31.426Z,940.8
2017-10-29T02:11:39.305Z,940.8
2017-10-29T02:12:47.387Z,940.7
2017-10-29T02:13:55.475Z,940.8
2017-10-29T02:15:03.561Z,940.7
2017-10-29T02:16:11.710Z,940.7
2017-10-29T02:17:19.736Z,940.6
2017-10-29T02:18:27.821Z,940.7
2017-10-29T02:19:36.074Z,940.7
2017-10-29T02:20:44.102Z,940.7
2017-10-29T02:21:52.203Z,940.7
2017-10-29T02:23:00.168Z,940.6
2017-10-29T02:24:08.420Z,940.5
2017-10-29T02:25:16.464Z,940.5
2017-10-29T02:26:24.429Z,940.6
2017-10-29T02:27:32.571Z,940.6
2017-10-29T02:28:40.759Z,940.5
2017-10-29T02:29:48.700Z,940.6
2017-10-29T02:30:56.786Z,940.6
2017-10-29T02:32:04.873Z,940.5
2017-10-29T02:33:13.166Z,940.4
2017-10-29T02:34:21.057Z,940.5
2017-10-29T02:35:29.142Z,940.4
2017-10-29T02:36:37.238Z,940.3
2017-10-29T02:37:45.326Z,940.4
2017-10-29T02:38:53.575Z,940.4
2017-10-29T02:40:01.498Z,940.4
2017-10-29T02:41:09.646Z,940.3
2017-10-29T02:42:17.677Z,940.3
2017-10-29T02:43:25.759Z,940.3
2017-10-29T02:44:33.900Z,940.2
2017-10-29T02:45:41.958Z,940.2
2017-10-29T02:46:50.059Z,940.1
2017-10-29T02:47:58.120Z,940.2
2017-10-29T02:49:06.207Z,940.2
2017-10-29T02:50:14.411Z,940.3
2017-10-29T02:51:22.402Z,940.3
2017-10-29T02:52:30.466Z,940.3
2017-10-29T02:53:38.552Z,940.3
2017-10-29T02:54:46.638Z,940.3
2017-10-29T02:55:54.893Z,940.3
2017-10-29T02:57:02.936Z,940.4
2017-10-29T02:58:10.900Z,940.4
2017-10-29T02:59:18.987Z,940.4
2017-10-29T03:00:27.074Z,940.4
2017-10-29T03:01:35.281Z,940.4
2017-10-29T03:02:43.446Z,940.4
2017-10-29T03:03:51.539Z,940.4
2017-10-29T03:04:59.832Z,940.4
2017-10-29T03:06:07.859Z,940.5
2017-10-29T03:07:15.862Z,940.4
2017-10-29T03:08:23.887Z,940.4
2017-10-29T03:09:32.169Z,940.4
2017-10-29T03:10:40.061Z,940.4
2017-10-29T03:11:48.146Z,940.4
2017-10-29T03:12:56.495Z,940.5
2017-10-29T03:14:04.713Z,940.5
2017-10-29T03:15:12.801Z,940.4
2017-10-29T03:16:20.890Z,940.4
2017-10-29T03:17:28.977Z,940.4
2017-10-29T03:18:37.119Z,940.3
2017-10-29T03:19:45.156Z,940.2
2017-10-29T03:20:53.344Z,940.2
2017-10-29T03:22:01.349Z,940.2
2017-10-29T03:23:09.410Z,940.1
2017-10-29T03:24:17.617Z,940.1
2017-10-29T03:25:25.777Z,940.1
2017-10-29T03:26:33.711Z,940.1
2017-10-29T03:27:41.758Z,940.0
2017-10-29T03:28:49.899Z,940.0
2017-10-29T03:29:58.051Z,940.1
2017-10-29T03:31:06.041Z,940.1
2017-10-29T03:32:14.104Z,940.0
2017-10-29T03:33:22.191Z,940.0
2017-10-29T03:34:30.282Z,940.1
2017-10-29T03:35:38.546Z,940.1
2017-10-29T03:36:46.460Z,940.1
2017-10-29T03:37:54.538Z,940.1
2017-10-29T03:39:02.669Z,940.2
2017-10-29T03:40:10.730Z,940.3
2017-10-29T03:41:18.869Z,940.3
2017-10-29T03:42:26.899Z,940.2
2017-10-29T03:43:34.985Z,940.2
2017-10-29T03:44:43.234Z,940.1
2017-10-29T03:45:51.210Z,940.1
2017-10-29T03:46:59.367Z,940.1
2017-10-29T03:48:07.333Z,940.2
2017-10-29T03:49:15.606Z,940.1
2017-10-29T03:50:23.507Z,940.1
2017-10-29T03:51:31.599Z,940.1
2017-10-29T03:52:39.736Z,940.1
2017-10-29T03:53:47.842Z,940.1
2017-10-29T03:54:55.855Z,940.0
2017-10-29T03:56:03.945Z,940.1
2017-10-29T03:57:12.053Z,940.1
2017-10-29T03:58:20.327Z,940.1
2017-10-29T03:59:28.220Z,940.0
2017-10-29T04:00:36.429Z,940.0
2017-10-29T04:01:44.395Z,940.0
2017-10-29T04:02:52.482Z,940.0
2017-10-29T04:04:00.625Z,940.0
2017-10-29T04:05:08.664Z,940.1
2017-10-29T04:06:16.792Z,939.9
2017-10-29T04:07:24.879Z,939.8
2017-10-29T04:08:32.961Z,939.8
2017-10-29T04:09:41.108Z,939.9
2017-10-29T04:10:49.134Z,939.9
2017-10-29T04:11:57.263Z,939.8
2017-10-29T04:13:05.306Z,939.9
2017-10-29T04:14:13.396Z,939.8
2017-10-29T04:15:21.603Z,939.9
2017-10-29T04:16:29.815Z,939.8
2017-10-29T04:17:37.669Z,939.8
2017-10-29T04:18:45.758Z,939.8
2017-10-29T04:19:53.840Z,939.8
2017-10-29T04:21:01.988Z,939.8
2017-10-29T04:22:10.020Z,939.7
2017-10-29T04:23:18.101Z,939.6
2017-10-29T04:24:26.189Z,939.6
2017-10-29T04:25:34.464Z,939.6
2017-10-29T04:26:42.418Z,939.6
2017-10-29T04:27:50.452Z,939.6
2017-10-29T04:28:58.537Z,939.5
2017-10-29T04:30:06.625Z,939.7
2017-10-29T04:31:14.729Z,939.5
2017-10-29T04:32:22.926Z,939.4
2017-10-29T04:33:30.891Z,939.3
2017-10-29T04:34:39.151Z,939.5
2017-10-29T04:35:47.066Z,939.3
2017-10-29T04:36:55.156Z,939.4
2017-10-29T04:38:03.294Z,939.3
2017-10-29T04:39:11.482Z,939.4
2017-10-29T04:40:19.415Z,939.4
2017-10-29T04:41:27.498Z,939.5
2017-10-29T04:42:35.586Z,939.5
2017-10-29T04:43:43.729Z,939.4
2017-10-29T04:44:51.799Z,939.4
2017-10-29T04:45:59.846Z,939.3
2017-10-29T04:47:07.937Z,939.3
2017-10-29T04:48:16.144Z,939.2
2017-10-29T04:49:24.170Z,939.1
2017-10-29T04:50:32.207Z,939.1
2017-10-29T04:51:40.304Z,939.1
2017-10-29T04:52:48.518Z,939.0
2017-10-29T04:53:56.565Z,938.9
2017-10-29T04:55:04.620Z,939.0
2017-10-29T04:56:12.650Z,939.0
2017-10-29T04:57:20.739Z,938.9
2017-10-29T04:58:28.826Z,938.9
2017-10-29T04:59:36.914Z,938.9
2017-10-29T05:00:45.057Z,938.8
2017-10-29T05:01:53.087Z,938.8
2017-10-29T05:03:01.347Z,938.8
2017-10-29T05:04:09.476Z,938.9
2017-10-29T05:05:17.508Z,938.8
2017-10-29T05:06:25.880Z,938.8
2017-10-29T05:07:33.682Z,938.8
2017-10-29T05:08:41.773Z,938.9
2017-10-29T05:09:49.857Z,938.8
2017-10-29T05:10:58.125Z,938.8
2017-10-29T05:12:06.112Z,938.8
2017-10-29T05:13:14.127Z,938.8
2017-10-29T05:14:22.214Z,938.8
2017-10-29T05:15:30.367Z,938.8
2017-10-29T05:16:38.387Z,938.8
2017-10-29T05:17:46.595Z,938.7
2017-10-29T05:18:54.562Z,938.7
2017-10-29T05:20:02.704Z,938.7
2017-10-29T05:21:10.737Z,938.7
2017-10-29T05:22:18.823Z,938.8
2017-10-29T05:23:26.967Z,938.6
2017-10-29T05:24:34.998Z,938.7
2017-10-29T05:25:43.784Z,938.7
2017-10-29T05:26:51.171Z,938.6
2017-10-29T05:27:59.262Z,938.6
2017-10-29T05:29:07.467Z,938.6
2017-10-29T05:30:15.431Z,938.6
2017-10-29T05:31:23.521Z,938.5
2017-10-29T05:32:31.606Z,938.5
2017-10-29T05:33:39.695Z,938.5
2017-10-29T05:34:47.837Z,938.5
2017-10-29T05:35:55.926Z,938.6
2017-10-29T05:37:03.959Z,938.5
2017-10-29T05:38:12.044Z,938.6
2017-10-29T05:39:20.234Z,938.5
2017-10-29T05:40:28.274Z,938.5
2017-10-29T05:41:36.309Z,938.5
2017-10-29T05:42:44.395Z,938.5
2017-10-29T05:43:52.480Z,938.4
2017-10-29T05:45:00.604Z,938.4
2017-10-29T05:46:08.781Z,938.3
2017-10-29T05:47:16.741Z,938.3
2017-10-29T05:48:24.830Z,938.4
2017-10-29T05:49:32.917Z,938.4
2017-10-29T05:50:41.003Z,938.4
2017-10-29T05:51:49.153Z,938.3
2017-10-29T05:52:57.271Z,938.4
2017-10-29T05:54:05.301Z,938.3
2017-10-29T05:55:13.385Z,938.3
2017-10-29T05:56:21.472Z,938.3
2017-10-29T05:57:29.614Z,938.3
2017-10-29T05:58:37.646Z,938.2
2017-10-29T05:59:45.733Z,938.2
2017-10-29T06:00:53.899Z,938.3
2017-10-29T06:02:01.934Z,938.2
2017-10-29T06:03:10.117Z,938.2
2017-10-29T06:04:18.081Z,938.2
2017-10-29T06:05:26.173Z,938.2
2017-10-29T06:06:34.375Z,938.2
2017-10-29T06:07:42.404Z,938.2
2017-10-29T06:08:50.503Z,938.1
2017-10-29T06:09:58.698Z,938.2
2017-10-29T06:11:06.619Z,938.1
2017-10-29T06:12:14.874Z,938.1
2017-10-29T06:13:22.962Z,938.1
2017-10-29T06:14:31.351Z,938.1
2017-10-29T06:15:39.139Z,938.1
2017-10-29T06:16:47.229Z,938.1
2017-10-29T06:17:55.312Z,938.2
2017-10-29T06:19:03.396Z,938.2
2017-10-29T06:20:11.540Z,938.1
2017-10-29T06:21:19.578Z,938.2
2017-10-29T06:22:27.664Z,938.2
2017-10-29T06:23:35.803Z,938.2
2017-10-29T06:24:43.841Z,938.2
2017-10-29T06:25:51.977Z,938.2
2017-10-29T06:27:00.017Z,938.2
2017-10-29T06:28:08.100Z,938.3
2017-10-29T06:29:16.302Z,938.3
2017-10-29T06:30:24.287Z,938.3
2017-10-29T06:31:32.427Z,938.3
2017-10-29T06:32:40.457Z,938.3
2017-10-29T06:33:48.544Z,938.3
2017-10-29T06:34:56.633Z,938.3
2017-10-29T06:36:04.719Z,938.3
2017-10-29T06:37:12.930Z,938.2
2017-10-29T06:38:20.891Z,938.2
2017-10-29T06:39:29.036Z,938.3
2017-10-29T06:40:37.065Z,938.3
2017-10-29T06:41:45.153Z,938.3
2017-10-29T06:42:53.359Z,938.3
2017-10-29T06:44:01.326Z,938.4
2017-10-29T06:45:09.413Z,938.4
2017-10-29T06:46:17.503Z,938.4
2017-10-29T06:47:25.763Z,938.4
2017-10-29T06:48:33.734Z,938.3
2017-10-29T06:49:41.759Z,938.3
2017-10-29T06:50:49.849Z,938.3
2017-10-29T06:51:57.934Z,938.3
2017-10-29T06:53:06.027Z,938.2
2017-10-29T06:54:14.228Z,938.3
2017-10-29T06:55:22.254Z,938.2
2017-10-29T06:56:30.280Z,938.2
2017-10-29T06:57:38.373Z,938.1
2017-10-29T06:58:46.453Z,938.1
2017-10-29T06:59:54.596Z,938.2
2017-10-29T07:01:02.630Z,938.2
2017-10-29T07:02:10.717Z,938.2
2017-10-29T07:03:18.800Z,938.2
2017-10-29T07:04:26.893Z,938.2
2017-10-29T07:05:35.201Z,938.4
2017-10-29T07:06:43.066Z,938.2
2017-10-29T07:07:51.158Z,938.3
2017-10-29T07:08:59.248Z,938.4
2017-10-29T07:10:07.497Z,938.3
2017-10-29T07:11:15.667Z,938.5
2017-10-29T07:12:23.503Z,938.4
2017-10-29T07:13:31.591Z,938.3
2017-10-29T07:14:39.684Z,938.3
2017-10-29T07:15:47.763Z,938.4
2017-10-29T07:16:55.906Z,938.3
2017-10-29T07:18:04.125Z,938.4
2017-10-29T07:19:12.161Z,938.4
2017-10-29T07:20:20.112Z,938.5
2017-10-29T07:21:28.197Z,938.4
2017-10-29T07:22:36.407Z,938.5
2017-10-29T07:23:44.487Z,938.5
2017-10-29T07:24:52.459Z,938.5
2017-10-29T07:26:00.541Z,938.4
2017-10-29T07:27:08.688Z,938.5
2017-10-29T07:28:16.963Z,938.5
2017-10-29T07:29:24.808Z,938.5
2017-10-29T07:30:32.888Z,938.4
2017-10-29T07:31:40.985Z,938.3
2017-10-29T07:32:49.206Z,938.3
2017-10-29T07:33:57.205Z,938.3
2017-10-29T07:35:05.235Z,938.3
2017-10-29T07:36:13.336Z,938.4
2017-10-29T07:37:21.408Z,938.4
2017-10-29T07:38:29.494Z,938.4
2017-10-29T07:39:37.637Z,938.4
2017-10-29T07:40:45.667Z,938.4
2017-10-29T07:41:53.791Z,938.5
2017-10-29T07:43:01.903Z,938.5
2017-10-29T07:44:09.935Z,938.5
2017-10-29T07:45:18.145Z,938.6
2017-10-29T07:46:26.110Z,938.5
2017-10-29T07:47:34.194Z,938.6
2017-10-29T07:48:42.280Z,938.6
2017-10-29T07:49:50.367Z,938.6
2017-10-29T07:50:58.576Z,938.7
2017-10-29T07:52:06.742Z,938.8
2017-10-29T07:53:14.838Z,938.7
2017-10-29T07:54:22.925Z,938.8
2017-10-29T07:55:31.122Z,938.8
2017-10-29T07:56:39.154Z,938.8
2017-10-29T07:57:47.184Z,938.8
2017-10-29T07:58:55.331Z,938.9
2017-10-29T08:00:03.366Z,938.9
2017-10-29T08:01:11.444Z,938.9
2017-10-29T08:02:19.588Z,939.0
2017-10-29T08:03:27.617Z,939.0
2017-10-29T08:04:35.703Z,938.9
2017-10-29T08:05:43.787Z,939.0
2017-10-29T08:06:51.874Z,939.0
2017-10-29T08:08:00.017Z,938.9
2017-10-29T08:09:08.075Z,938.9
2017-10-29T08:10:16.163Z,938.9
2017-10-29T08:11:24.243Z,938.8
2017-10-29T08:12:32.334Z,938.9
2017-10-29T08:13:40.672Z,938.8
2017-10-29T08:14:48.567Z,938.9
2017-10-29T08:15:56.588Z,938.7
2017-10-29T08:17:04.673Z,938.8
2017-10-29T08:18:12.859Z,938.7
2017-10-29T08:19:20.902Z,938.7
2017-10-29T08:20:28.935Z,938.7
2017-10-29T08:21:37.021Z,938.6
2017-10-29T08:22:45.104Z,938.7
2017-10-29T08:23:53.191Z,938.6
2017-10-29T08:25:01.330Z,938.7
2017-10-29T08:26:09.370Z,938.8
2017-10-29T08:27:17.446Z,938.7
2017-10-29T08:28:25.535Z,938.7
2017-10-29T08:29:33.620Z,938.8
2017-10-29T08:30:41.764Z,938.7
2017-10-29T08:31:49.792Z,938.6
2017-10-29T08:32:57.880Z,938.7
2017-10-29T08:34:05.965Z,938.8
2017-10-29T08:35:14.049Z,938.7
2017-10-29T08:36:22.238Z,938.6
2017-10-29T08:37:30.263Z,938.7
2017-10-29T08:38:38.307Z,938.5
2017-10-29T08:39:46.397Z,938.6
2017-10-29T08:40:54.675Z,938.6
2017-10-29T08:42:02.703Z,938.6
2017-10-29T08:43:10.654Z,938.5
2017-10-29T08:44:18.745Z,938.6
2017-10-29T08:45:26.823Z,938.6
2017-10-29T08:46:34.969Z,938.5
2017-10-29T08:47:43.131Z,938.5
2017-10-29T08:48:51.083Z,938.5
2017-10-29T08:49:59.166Z,938.6
2017-10-29T08:51:07.284Z,938.5
2017-10-29T08:52:15.357Z,938.6
2017-10-29T08:53:23.588Z,938.5
2017-10-29T08:54:31.543Z,938.5
2017-10-29T08:55:39.738Z,938.5
2017-10-29T08:56:47.763Z,938.6
2017-10-29T08:57:55.792Z,938.5
2017-10-29T08:59:04.433Z,938.5
2017-10-29T09:00:12.096Z,938.5
2017-10-29T09:01:20.044Z,938.5
2017-10-29T09:02:28.263Z,938.5
2017-10-29T09:03:36.231Z,938.5
2017-10-29T09:04:44.494Z,938.5
2017-10-29T09:05:52.389Z,938.5
2017-10-29T09:07:00.477Z,938.5
2017-10-29T09:08:08.563Z,938.5
2017-10-29T09:09:16.651Z,938.6
2017-10-29T09:10:24.857Z,938.6
2017-10-29T09:11:32.821Z,938.6
2017-10-29T09:12:40.910Z,938.6
2017-10-29T09:13:49.198Z,938.6
2017-10-29T09:14:57.099Z,938.5
2017-10-29T09:16:05.309Z,938.6
2017-10-29T09:17:13.357Z,938.6
2017-10-29T09:18:21.660Z,938.5
2017-10-29T09:19:29.511Z,938.7
2017-10-29T09:20:37.735Z,938.6
2017-10-29T09:21:45.876Z,938.5
2017-10-29T09:22:53.908Z,938.6
2017-10-29T09:24:01.994Z,938.6
2017-10-29T09:25:10.544Z,938.6
2017-10-29T09:26:18.279Z,938.7
2017-10-29T09:27:26.321Z,938.6
2017-10-29T09:28:34.361Z,938.6
2017-10-29T09:29:42.436Z,938.6
2017-10-29T09:30:50.525Z,938.6
2017-10-29T09:31:58.610Z,938.6
2017-10-29T09:33:06.764Z,938.6
2017-10-29T09:34:14.840Z,938.6
2017-10-29T09:35:23.072Z,938.7
2017-10-29T09:36:30.951Z,938.7
2017-10-29T09:37:39.038Z,938.7
2017-10-29T09:38:47.255Z,938.7
2017-10-29T09:39:55.225Z,938.7
2017-10-29T09:41:03.313Z,938.7
2017-10-29T09:42:11.397Z,938.6
2017-10-29T09:43:19.483Z,938.7
2017-10-29T09:44:27.635Z,938.8
2017-10-29T09:45:35.696Z,938.8
2017-10-29T09:46:43.764Z,938.7
2017-10-29T09:47:51.856Z,938.7
2017-10-29T09:48:59.941Z,938.8
2017-10-29T09:50:08.085Z,938.8
2017-10-29T09:51:16.115Z,938.8
2017-10-29T09:52:24.207Z,938.8
2017-10-29T09:53:32.291Z,938.8
2017-10-29T09:54:40.476Z,938.9
2017-10-29T09:55:48.707Z,938.8
2017-10-29T09:56:56.548Z,938.8
2017-10-29T09:58:04.626Z,938.8
2017-10-29T09:59:12.915Z,938.8
2017-10-29T10:00:20.803Z,938.8
2017-10-29T10:01:28.942Z,938.8
2017-10-29T10:02:36.977Z,938.8
2017-10-29T10:03:45.147Z,938.9
2017-10-29T10:04:53.147Z,938.8
2017-10-29T10:06:01.288Z,938.8
2017-10-29T10:07:09.609Z,938.8
2017-10-29T10:08:17.492Z,938.8
2017-10-29T10:09:25.495Z,938.8
2017-10-29T10:10:33.581Z,938.8
2017-10-29T10:11:41.662Z,938.8
2017-10-29T10:12:49.807Z,938.9
2017-10-29T10:13:57.832Z,938.9
2017-10-29T10:15:05.952Z,939.0
2017-10-29T10:16:14.037Z,938.9
2017-10-29T10:17:22.301Z,938.9
2017-10-29T10:18:30.264Z,938.9
2017-10-29T10:19:38.294Z,938.8
2017-10-29T10:20:46.381Z,938.9
2017-10-29T10:21:54.673Z,938.8
2017-10-29T10:23:02.552Z,938.8
2017-10-29T10:24:10.774Z,939.0
2017-10-29T10:25:18.731Z,939.0
2017-10-29T10:26:26.811Z,939.0
2017-10-29T10:27:34.898Z,939.0
2017-10-29T10:28:42.984Z,939.0
2017-10-29T10:29:51.199Z,938.9
2017-10-29T10:30:59.337Z,938.9
2017-10-29T10:32:07.242Z,938.9
2017-10-29T10:33:15.677Z,939.0
2017-10-29T10:34:23.784Z,938.9
2017-10-29T10:35:31.917Z,938.9
2017-10-29T10:36:39.944Z,939.0
2017-10-29T10:37:48.087Z,938.9
2017-10-29T10:38:56.283Z,938.9
2017-10-29T10:40:04.218Z,938.9
2017-10-29T10:41:12.431Z,938.9
2017-10-29T10:42:20.392Z,938.9
2017-10-29T10:43:28.523Z,938.8
2017-10-29T10:44:36.564Z,938.8
2017-10-29T10:45:44.649Z,938.8
2017-10-29T10:46:52.796Z,938.9
2017-10-29T10:48:00.868Z,938.9
2017-10-29T10:48:00.881Z,938.9
2017-10-29T10:49:08.904Z,938.9
2017-10-29T10:50:16.996Z,938.8
2017-10-29T10:51:25.084Z,938.9
2017-10-29T10:52:33.343Z,938.8
2017-10-29T10:53:41.478Z,938.8
2017-10-29T10:54:49.353Z,938.9
2017-10-29T10:55:57.437Z,938.8
2017-10-29T10:57:05.567Z,938.8
2017-10-29T10:58:13.667Z,938.8
2017-10-29T10:59:21.706Z,938.8
2017-10-29T11:00:29.790Z,938.8
2017-10-29T11:01:37.913Z,938.8
2017-10-29T11:02:46.118Z,938.7
2017-10-29T11:03:54.104Z,938.7
2017-10-29T11:05:02.135Z,938.6
2017-10-29T11:06:10.358Z,938.7
2017-10-29T11:07:18.309Z,938.7
2017-10-29T11:08:26.427Z,938.6
2017-10-29T11:09:34.534Z,938.7
2017-10-29T11:10:42.566Z,938.7
2017-10-29T11:11:50.650Z,938.7
2017-10-29T11:12:58.742Z,938.8
2017-10-29T11:14:06.822Z,938.8
2017-10-29T11:15:14.964Z,938.7
2017-10-29T11:16:22.995Z,938.7
2017-10-29T11:17:31.091Z,938.7
2017-10-29T11:18:39.195Z,938.7
2017-10-29T11:19:47.335Z,938.6
2017-10-29T11:20:55.566Z,938.7
2017-10-29T11:22:03.568Z,938.6
2017-10-29T11:23:11.577Z,938.6
2017-10-29T11:24:19.645Z,938.6
2017-10-29T11:25:27.825Z,938.8
2017-10-29T11:26:36.329Z,938.6
2017-10-29T11:27:43.879Z,938.7
2017-10-29T11:28:52.018Z,938.7
2017-10-29T11:30:00.048Z,938.6
2017-10-29T11:31:08.124Z,938.6
2017-10-29T11:32:16.386Z,938.7
2017-10-29T11:33:24.372Z,938.7
2017-10-29T11:34:32.549Z,938.7
2017-10-29T11:35:40.472Z,938.6
2017-10-29T11:36:48.859Z,938.8
2017-10-29T11:37:57.068Z,938.7
2017-10-29T11:39:05.107Z,938.7
2017-10-29T11:40:13.112Z,938.7
2017-10-29T11:41:21.264Z,938.7
2017-10-29T11:42:29.327Z,938.6
2017-10-29T11:43:37.504Z,938.7
2017-10-29T11:44:45.471Z,938.7
2017-10-29T11:45:53.556Z,938.6
2017-10-29T11:47:01.648Z,938.6
2017-10-29T11:48:09.840Z,938.7
2017-10-29T11:49:18.012Z,938.6
2017-10-29T11:50:26.021Z,938.6
2017-10-29T11:51:34.106Z,938.5
2017-10-29T11:52:42.191Z,938.5
2017-10-29T11:53:50.283Z,938.5
2017-10-29T11:54:58.479Z,938.5
2017-10-29T11:56:06.485Z,938.5
2017-10-29T11:57:14.586Z,938.5
2017-10-29T11:58:22.610Z,938.5
2017-10-29T11:59:30.711Z,938.6
2017-10-29T12:00:38.844Z,938.6
2017-10-29T12:01:46.874Z,938.5
2017-10-29T12:02:54.955Z,938.6
2017-10-29T12:04:03.042Z,938.5
2017-10-29T12:05:11.128Z,938.5
2017-10-29T12:06:19.271Z,938.4
2017-10-29T12:07:27.301Z,938.5
2017-10-29T12:08:35.385Z,938.5
2017-10-29T12:09:43.480Z,938.5
2017-10-29T12:10:51.569Z,938.6
2017-10-29T12:11:59.710Z,938.5
2017-10-29T12:13:07.807Z,938.5
2017-10-29T12:14:15.910Z,938.6
2017-10-29T12:15:23.911Z,938.6
2017-10-29T12:16:32.028Z,938.5
2017-10-29T12:17:40.139Z,938.6
2017-10-29T12:18:48.176Z,938.5
2017-10-29T12:19:56.261Z,938.5
2017-10-29T12:21:04.348Z,938.6
2017-10-29T12:22:12.435Z,938.5
2017-10-29T12:23:20.809Z,938.4
2017-10-29T12:24:28.733Z,938.5
2017-10-29T12:25:36.688Z,938.5
2017-10-29T12:26:44.774Z,938.5
2017-10-29T12:27:52.924Z,938.5
2017-10-29T12:29:01.101Z,938.5
2017-10-29T12:30:09.032Z,938.5
2017-10-29T12:31:17.120Z,938.5
2017-10-29T12:32:25.379Z,938.6
2017-10-29T12:33:33.420Z,938.5
2017-10-29T12:34:41.434Z,938.6
2017-10-29T12:35:49.465Z,938.5
2017-10-29T12:36:57.550Z,938.5
2017-10-29T12:38:05.634Z,938.6
2017-10-29T12:39:13.720Z,938.6
2017-10-29T12:40:21.865Z,938.6
2017-10-29T12:41:29.893Z,938.6
2017-10-29T12:42:38.087Z,938.6
2017-10-29T12:43:46.066Z,938.7
2017-10-29T12:44:54.206Z,938.6
2017-10-29T12:46:02.436Z,938.7
2017-10-29T12:47:10.518Z,938.7
2017-10-29T12:48:18.409Z,938.7
2017-10-29T12:49:26.496Z,938.7
2017-10-29T12:50:34.740Z,938.8
2017-10-29T12:51:42.725Z,938.8
2017-10-29T12:52:50.754Z,938.8
2017-10-29T12:53:58.838Z,938.8
2017-10-29T12:55:07.084Z,938.9
2017-10-29T12:56:15.529Z,938.9
2017-10-29T12:57:23.674Z,938.9
2017-10-29T12:58:31.702Z,939.0
2017-10-29T12:59:39.787Z,939.0
2017-10-29T13:00:47.965Z,939.0
2017-10-29T13:01:55.960Z,939.0
2017-10-29T13:03:04.102Z,939.0
2017-10-29T13:04:12.168Z,939.0
2017-10-29T13:05:21.486Z,939.0
2017-10-29T13:06:28.303Z,938.9
2017-10-29T13:07:36.396Z,939.0
2017-10-29T13:08:44.532Z,938.9
2017-10-29T13:09:52.567Z,939.0
2017-10-29T13:11:00.649Z,939.0
2017-10-29T13:12:08.735Z,939.0
2017-10-29T13:13:16.821Z,939.1
2017-10-29T13:14:24.967Z,939.0
2017-10-29T13:15:32.994Z,939.0
2017-10-29T13:16:41.208Z,939.1
2017-10-29T13:17:49.165Z,939.1
2017-10-29T13:18:57.252Z,939.1
2017-10-29T13:20:05.398Z,939.1
2017-10-29T13:21:13.426Z,939.1
2017-10-29T13:22:21.529Z,939.1
2017-10-29T13:23:29.602Z,939.1
2017-10-29T13:24:37.684Z,939.2
2017-10-29T13:25:45.831Z,939.2
2017-10-29T13:26:53.948Z,939.1
2017-10-29T13:28:01.946Z,939.2
2017-10-29T13:29:10.041Z,939.2
2017-10-29T13:30:18.117Z,939.2
2017-10-29T13:31:26.325Z,939.2
2017-10-29T13:32:34.345Z,939.2
2017-10-29T13:33:42.373Z,939.2
2017-10-29T13:34:50.463Z,939.3
2017-10-29T13:35:58.558Z,939.2
2017-10-29T13:37:06.690Z,939.2
2017-10-29T13:38:14.725Z,939.2
2017-10-29T13:39:22.805Z,939.2
2017-10-29T13:40:30.894Z,939.2
2017-10-29T13:41:38.977Z,939.2
2017-10-29T13:42:47.120Z,939.2
2017-10-29T13:43:55.153Z,939.3
2017-10-29T13:45:03.253Z,939.3
2017-10-29T13:46:11.339Z,939.3
2017-10-29T13:47:19.420Z,939.3
2017-10-29T13:48:27.570Z,939.4
2017-10-29T13:49:35.896Z,939.4
2017-10-29T13:50:43.702Z,939.4
2017-10-29T13:51:51.778Z,939.5
2017-10-29T13:52:59.860Z,939.5
2017-10-29T13:54:08.004Z,939.5
2017-10-29T13:55:16.028Z,939.5
2017-10-29T13:56:24.123Z,939.6
2017-10-29T13:57:32.204Z,939.5
2017-10-29T13:58:40.399Z,939.5
2017-10-29T13:59:48.478Z,939.5
2017-10-29T14:00:56.872Z,939.5
2017-10-29T14:02:04.551Z,939.5
2017-10-29T14:03:13.007Z,939.6
2017-10-29T14:04:21.341Z,939.6
2017-10-29T14:05:29.232Z,939.6
2017-10-29T14:06:37.346Z,939.7
2017-10-29T14:07:45.349Z,939.7
2017-10-29T14:08:53.437Z,939.7
2017-10-29T14:10:01.524Z,939.7
2017-10-29T14:11:10.322Z,939.6
2017-10-29T14:12:17.766Z,939.7
2017-10-29T14:13:25.789Z,939.6
2017-10-29T14:14:33.965Z,939.7
2017-10-29T14:15:41.956Z,939.7
2017-10-29T14:16:50.230Z,939.8
2017-10-29T14:17:58.221Z,939.8
2017-10-29T14:19:06.440Z,939.7
2017-10-29T14:20:14.366Z,939.8
2017-10-29T14:21:22.397Z,939.8
2017-10-29T14:22:30.538Z,939.8
2017-10-29T14:23:38.573Z,939.8
2017-10-29T14:24:46.734Z,939.9
2017-10-29T14:25:54.782Z,939.9
2017-10-29T14:27:02.910Z,939.9
2017-10-29T14:28:11.251Z,939.9
2017-10-29T14:29:19.004Z,939.9
2017-10-29T14:30:27.098Z,940.0
2017-10-29T14:31:35.184Z,940.0
2017-10-29T14:32:43.271Z,940.0
2017-10-29T14:33:51.581Z,940.1
2017-10-29T14:34:59.536Z,940.1
2017-10-29T14:36:07.732Z,940.2